createdAt,value
2023-11-30T00:02:02.994Z,20.73
2023-11-30T00:04:31.177Z,17.67
2023-11-30T00:06:59.240Z,18.48
2023-11-30T00:09:27.352Z,18.92
2023-11-30T00:11:56.940Z,19.52
2023-11-30T00:14:25.056Z,19.15
2023-11-30T00:16:53.230Z,16.13
2023-11-30T00:19:21.330Z,19.15
2023-11-30T00:21:49.479Z,20.45
2023-11-30T00:24:17.915Z,19.55
2023-11-30T00:26:46.051Z,18.27
2023-11-30T00:29:15.634Z,19.50
2023-11-30T00:31:43.806Z,18.13
2023-11-30T00:34:11.838Z,20.67
2023-11-30T00:36:39.917Z,23.60
2023-11-30T00:39:11.114Z,19.05
2023-11-30T00:41:39.301Z,22.02
2023-11-30T00:44:07.644Z,17.88
2023-11-30T00:46:37.124Z,22.98
2023-11-30T00:49:05.358Z,18.92
2023-11-30T00:51:35.444Z,21.00
2023-11-30T00:54:04.040Z,20.30
2023-11-30T00:56:32.311Z,19.23
2023-11-30T00:59:02.471Z,19.75
2023-11-30T01:01:30.744Z,22.30
2023-11-30T01:04:00.392Z,19.88
2023-11-30T01:06:28.623Z,16.45
2023-11-30T01:08:56.861Z,18.25
2023-11-30T01:11:25.045Z,15.50
2023-11-30T01:13:56.187Z,18.60
2023-11-30T01:16:24.403Z,16.73
2023-11-30T01:18:52.648Z,18.83
2023-11-30T01:21:22.362Z,19.35
2023-11-30T01:23:52.989Z,18.17
2023-11-30T01:26:21.145Z,17.48
2023-11-30T01:28:49.243Z,18.00
2023-11-30T01:31:17.333Z,18.58
2023-11-30T01:33:45.471Z,21.63
2023-11-30T01:36:13.938Z,19.48
2023-11-30T01:38:43.379Z,28.23
2023-11-30T01:41:11.642Z,43.35
2023-11-30T01:43:39.737Z,31.08
2023-11-30T01:46:08.814Z,14.88
2023-11-30T01:48:36.997Z,21.30
2023-11-30T01:51:08.861Z,21.52
2023-11-30T01:53:38.189Z,28.83
2023-11-30T01:56:09.825Z,52.47
2023-11-30T01:58:38.617Z,15.15
2023-11-30T02:01:09.236Z,16.13
2023-11-30T02:03:38.327Z,13.90
2023-11-30T02:06:07.489Z,15.13
2023-11-30T02:08:36.455Z,16.40
2023-11-30T02:11:04.987Z,13.73
2023-11-30T02:13:34.576Z,14.15
2023-11-30T02:16:02.834Z,16.30
2023-11-30T02:18:31.002Z,17.27
2023-11-30T02:20:59.191Z,18.00
2023-11-30T02:23:28.699Z,15.15
2023-11-30T02:25:56.812Z,19.08
2023-11-30T02:28:24.928Z,14.95
2023-11-30T02:30:53.113Z,15.82
2023-11-30T02:33:23.568Z,17.33
2023-11-30T02:35:51.817Z,17.45
2023-11-30T02:38:19.950Z,15.52
2023-11-30T02:40:49.499Z,24.25
2023-11-30T02:43:17.625Z,18.10
2023-11-30T02:45:45.784Z,17.67
2023-11-30T02:48:14.065Z,46.15
2023-11-30T02:50:42.142Z,19.15
2023-11-30T02:53:10.398Z,19.58
2023-11-30T02:55:38.498Z,19.38
2023-11-30T02:58:08.067Z,18.50
2023-11-30T03:00:36.180Z,18.08
2023-11-30T03:03:04.562Z,19.55
2023-11-30T03:05:33.715Z,16.17
2023-11-30T03:08:01.983Z,17.08
2023-11-30T03:10:30.236Z,16.75
2023-11-30T03:12:58.474Z,17.15
2023-11-30T03:15:28.001Z,18.13
2023-11-30T03:17:56.267Z,15.85
2023-11-30T03:20:24.389Z,19.45
2023-11-30T03:22:52.554Z,20.98
2023-11-30T03:25:20.608Z,18.10
2023-11-30T03:27:48.702Z,19.88
2023-11-30T03:30:16.917Z,18.00
2023-11-30T03:32:46.955Z,20.85
2023-11-30T03:35:15.207Z,17.73
2023-11-30T03:37:45.072Z,19.15
2023-11-30T03:40:14.265Z,17.13
2023-11-30T03:42:42.382Z,16.58
2023-11-30T03:45:11.405Z,19.13
2023-11-30T03:47:39.583Z,18.77
2023-11-30T03:50:09.955Z,17.92
2023-11-30T03:52:38.362Z,18.88
2023-11-30T03:55:09.729Z,18.00
2023-11-30T03:57:37.811Z,18.08
2023-11-30T04:00:09.286Z,19.27
2023-11-30T04:02:37.652Z,18.03
2023-11-30T04:05:06.871Z,20.27
2023-11-30T04:07:37.928Z,19.90
2023-11-30T04:10:07.146Z,20.92
2023-11-30T04:12:36.820Z,18.08
2023-11-30T04:15:06.899Z,17.55
2023-11-30T04:17:36.344Z,19.75
2023-11-30T04:20:06.390Z,19.50
2023-11-30T04:22:34.464Z,19.58
2023-11-30T04:25:08.031Z,18.92
2023-11-30T04:27:36.300Z,18.30
2023-11-30T04:30:04.742Z,20.15
2023-11-30T04:32:32.962Z,19.85
2023-11-30T04:35:01.425Z,18.95
2023-11-30T04:37:29.636Z,18.90
2023-11-30T04:39:59.963Z,18.80
2023-11-30T04:42:29.575Z,21.85
2023-11-30T04:44:57.734Z,19.52
2023-11-30T04:47:26.067Z,19.23
2023-11-30T04:49:54.171Z,16.98
2023-11-30T04:52:22.229Z,19.73
2023-11-30T04:54:50.438Z,18.38
2023-11-30T04:57:18.879Z,18.85
2023-11-30T04:59:48.450Z,18.33
2023-11-30T05:02:16.828Z,19.50
2023-11-30T05:04:45.176Z,17.80
2023-11-30T05:07:13.333Z,18.60
2023-11-30T05:09:41.384Z,17.35
2023-11-30T05:12:09.609Z,18.65
2023-11-30T05:14:37.659Z,18.30
2023-11-30T05:17:07.389Z,21.40
2023-11-30T05:19:35.598Z,20.85
2023-11-30T05:22:03.673Z,20.92
2023-11-30T05:24:31.788Z,20.10
2023-11-30T05:26:59.941Z,19.48
2023-11-30T05:29:28.150Z,18.67
2023-11-30T05:31:56.654Z,19.33
2023-11-30T05:34:26.141Z,20.45
2023-11-30T05:36:54.217Z,21.58
2023-11-30T05:39:22.294Z,21.23
2023-11-30T05:41:50.811Z,20.50
2023-11-30T05:44:21.799Z,24.02
2023-11-30T05:46:51.625Z,22.73
2023-11-30T05:49:19.823Z,21.38
2023-11-30T05:51:49.403Z,24.05
2023-11-30T05:54:17.789Z,23.83
2023-11-30T05:56:46.108Z,26.38
2023-11-30T05:59:14.796Z,22.63
2023-11-30T06:01:42.957Z,22.20
2023-11-30T06:04:11.663Z,21.15
2023-11-30T06:06:39.803Z,22.48
2023-11-30T06:09:09.488Z,25.27
2023-11-30T06:11:37.732Z,21.92
2023-11-30T06:14:05.798Z,22.88
2023-11-30T06:16:33.974Z,21.65
2023-11-30T06:19:02.054Z,21.55
2023-11-30T06:21:30.625Z,21.20
2023-11-30T06:23:58.862Z,21.25
2023-11-30T06:26:28.385Z,22.90
2023-11-30T06:28:56.517Z,21.27
2023-11-30T06:31:24.588Z,22.50
2023-11-30T06:33:52.897Z,23.45
2023-11-30T06:36:20.962Z,22.45
2023-11-30T06:38:51.469Z,20.98
2023-11-30T06:41:19.552Z,22.92
2023-11-30T06:43:48.999Z,21.60
2023-11-30T06:46:21.774Z,21.95
2023-11-30T06:48:50.082Z,22.45
2023-11-30T06:51:18.583Z,22.52
2023-11-30T06:53:46.683Z,24.85
2023-11-30T06:56:14.992Z,22.77
2023-11-30T06:58:43.191Z,20.30
2023-11-30T07:01:12.785Z,21.92
2023-11-30T07:03:43.109Z,21.00
2023-11-30T07:06:12.107Z,20.75
2023-11-30T07:08:40.373Z,23.30
2023-11-30T07:11:09.886Z,21.23
2023-11-30T07:13:38.051Z,23.65
2023-11-30T07:16:07.899Z,21.80
2023-11-30T07:18:37.579Z,22.67
2023-11-30T07:21:06.504Z,22.85
2023-11-30T07:23:34.718Z,23.95
2023-11-30T07:26:04.178Z,24.05
2023-11-30T07:28:33.403Z,20.85
2023-11-30T07:31:01.594Z,20.98
2023-11-30T07:33:30.663Z,21.73
2023-11-30T07:36:00.297Z,20.00
2023-11-30T07:38:28.756Z,22.13
2023-11-30T07:40:57.783Z,20.17
2023-11-30T07:43:25.888Z,23.15
2023-11-30T07:45:54.088Z,23.00
2023-11-30T07:48:22.326Z,23.83
2023-11-30T07:50:50.554Z,25.80
2023-11-30T07:53:20.266Z,25.83
2023-11-30T07:55:48.347Z,26.42
2023-11-30T07:58:16.566Z,25.30
2023-11-30T08:00:44.706Z,26.17
2023-11-30T08:03:12.811Z,27.00
2023-11-30T08:05:40.940Z,22.13
2023-11-30T08:08:10.404Z,25.83
2023-11-30T08:10:39.896Z,29.42
2023-11-30T08:13:08.263Z,29.10
2023-11-30T08:15:36.483Z,27.10
2023-11-30T08:18:09.123Z,28.90
2023-11-30T08:20:40.843Z,26.55
2023-11-30T08:23:09.044Z,27.90
2023-11-30T08:25:37.084Z,25.38
2023-11-30T08:28:06.729Z,26.58
2023-11-30T08:30:34.918Z,29.88
2023-11-30T08:33:06.777Z,23.83
2023-11-30T08:35:35.195Z,30.52
2023-11-30T08:38:03.320Z,31.33
2023-11-30T08:40:31.381Z,27.55
2023-11-30T08:42:59.514Z,32.80
2023-11-30T08:45:29.371Z,29.38
2023-11-30T08:47:57.562Z,28.25
2023-11-30T08:50:25.738Z,29.60
2023-11-30T08:52:53.841Z,29.50
2023-11-30T08:55:21.959Z,32.10
2023-11-30T08:57:50.160Z,29.63
2023-11-30T09:00:20.668Z,32.75
2023-11-30T09:02:50.321Z,32.15
2023-11-30T09:05:19.511Z,29.38
2023-11-30T09:07:47.596Z,33.05
2023-11-30T09:10:15.813Z,30.40
2023-11-30T09:12:47.024Z,32.28
2023-11-30T09:15:15.332Z,31.73
2023-11-30T09:17:43.490Z,31.17
2023-11-30T09:20:13.350Z,34.88
2023-11-30T09:22:41.929Z,32.70
2023-11-30T09:25:11.740Z,33.10
2023-11-30T09:27:39.904Z,31.02
2023-11-30T09:30:10.568Z,31.63
2023-11-30T09:32:38.844Z,29.65
2023-11-30T09:35:07.871Z,31.23
2023-11-30T09:37:37.388Z,32.20
2023-11-30T09:40:07.349Z,31.00
2023-11-30T09:42:35.462Z,37.42
2023-11-30T09:45:05.504Z,32.10
2023-11-30T09:47:33.899Z,33.78
2023-11-30T09:50:02.452Z,37.10
2023-11-30T09:52:32.549Z,39.70
2023-11-30T09:55:02.165Z,37.03
2023-11-30T09:57:30.319Z,39.08
2023-11-30T09:59:59.604Z,38.92
2023-11-30T10:02:29.765Z,42.13
2023-11-30T10:04:59.020Z,42.45
2023-11-30T10:07:27.122Z,40.47
2023-11-30T10:09:58.574Z,42.55
2023-11-30T10:12:28.248Z,40.67
2023-11-30T10:15:02.010Z,42.92
2023-11-30T10:17:30.511Z,41.47
2023-11-30T10:20:01.269Z,41.63
2023-11-30T10:22:29.424Z,38.45
2023-11-30T10:25:00.040Z,41.40
2023-11-30T10:27:34.051Z,37.60
2023-11-30T10:30:02.936Z,38.97
2023-11-30T10:32:36.953Z,41.50
2023-11-30T10:35:07.851Z,36.20
2023-11-30T10:37:42.597Z,39.28
2023-11-30T10:40:12.213Z,43.90
2023-11-30T10:42:43.040Z,41.92
2023-11-30T10:45:13.753Z,46.00
2023-11-30T10:47:44.189Z,45.33
2023-11-30T10:50:13.603Z,43.13
2023-11-30T10:52:44.865Z,39.58
2023-11-30T10:55:17.518Z,42.10
2023-11-30T10:57:47.996Z,39.50
2023-11-30T11:00:18.055Z,43.42
2023-11-30T11:02:48.173Z,44.58
2023-11-30T11:05:19.621Z,45.00
2023-11-30T11:07:48.135Z,47.58
2023-11-30T11:10:23.632Z,41.97
2023-11-30T11:12:53.912Z,44.42
2023-11-30T11:15:23.568Z,47.03
2023-11-30T11:17:53.950Z,49.05
2023-11-30T11:20:27.442Z,51.58
2023-11-30T11:22:56.883Z,50.72
2023-11-30T11:25:26.795Z,49.95
2023-11-30T11:27:57.280Z,53.90
2023-11-30T11:30:28.278Z,52.80
2023-11-30T11:33:00.000Z,55.80
2023-11-30T11:35:28.930Z,58.20
2023-11-30T11:38:01.157Z,58.97
2023-11-30T11:40:29.298Z,59.67
2023-11-30T11:42:58.781Z,56.33
2023-11-30T11:45:27.094Z,59.88
2023-11-30T11:47:55.321Z,56.65
2023-11-30T11:50:23.884Z,61.63
2023-11-30T11:52:52.130Z,59.15
2023-11-30T11:55:25.252Z,55.05
2023-11-30T11:57:54.853Z,59.53
2023-11-30T12:00:25.951Z,60.53
2023-11-30T12:03:05.379Z,60.03
2023-11-30T12:05:33.586Z,58.42
2023-11-30T12:08:02.576Z,62.42
2023-11-30T12:10:32.672Z,57.42
2023-11-30T12:13:02.334Z,62.08
2023-11-30T12:15:32.057Z,55.90
2023-11-30T12:18:03.261Z,61.80
2023-11-30T12:20:32.220Z,62.78
2023-11-30T12:23:00.405Z,62.00
2023-11-30T12:25:29.684Z,63.92
2023-11-30T12:27:58.458Z,64.38
2023-11-30T12:30:26.860Z,64.93
2023-11-30T12:32:56.850Z,65.90
2023-11-30T12:35:25.805Z,63.33
2023-11-30T12:37:54.055Z,62.33
2023-11-30T12:40:24.200Z,65.13
2023-11-30T12:42:52.416Z,62.35
2023-11-30T12:45:27.150Z,60.13
2023-11-30T12:48:05.667Z,67.20
2023-11-30T12:50:39.712Z,59.75
2023-11-30T12:53:08.117Z,61.42
2023-11-30T12:55:36.356Z,63.25
2023-11-30T12:58:04.684Z,61.35
2023-11-30T13:00:35.824Z,63.72
2023-11-30T13:03:05.509Z,61.88
2023-11-30T13:05:36.448Z,63.33
2023-11-30T13:08:06.377Z,67.13
2023-11-30T13:10:34.552Z,64.18
2023-11-30T13:13:02.816Z,56.75
2023-11-30T13:15:31.456Z,63.05
2023-11-30T13:18:02.019Z,61.45
2023-11-30T13:20:31.559Z,56.45
2023-11-30T13:22:59.656Z,56.13
2023-11-30T13:25:31.309Z,56.38
2023-11-30T13:27:59.383Z,62.17
2023-11-30T13:30:29.885Z,55.05
2023-11-30T13:32:59.703Z,56.25
2023-11-30T13:35:27.995Z,46.78
2023-11-30T13:37:59.232Z,52.10
2023-11-30T13:40:27.796Z,51.20
2023-11-30T13:42:55.851Z,51.40
2023-11-30T13:45:25.743Z,48.83
2023-11-30T13:47:53.891Z,50.78
2023-11-30T13:50:30.713Z,54.15
2023-11-30T13:53:11.583Z,49.97
2023-11-30T13:55:39.992Z,51.95
2023-11-30T13:58:08.678Z,50.47
2023-11-30T14:00:38.127Z,53.78
2023-11-30T14:03:06.395Z,54.78
2023-11-30T14:05:34.664Z,49.47
2023-11-30T14:08:03.517Z,48.97
2023-11-30T14:10:33.063Z,52.90
2023-11-30T14:13:01.228Z,49.40
2023-11-30T14:15:29.272Z,51.47
2023-11-30T14:17:57.475Z,52.72
2023-11-30T14:20:29.486Z,56.13
2023-11-30T14:22:57.702Z,54.05
2023-11-30T14:25:26.973Z,49.30
2023-11-30T14:27:57.734Z,51.55
2023-11-30T14:30:27.863Z,48.00
2023-11-30T14:32:56.385Z,47.05
2023-11-30T14:35:24.509Z,46.50
2023-11-30T14:37:54.747Z,48.25
2023-11-30T14:40:24.044Z,49.17
2023-11-30T14:42:54.566Z,49.00
2023-11-30T14:45:24.681Z,52.63
2023-11-30T14:47:52.895Z,48.08
2023-11-30T14:50:21.158Z,48.13
2023-11-30T14:52:49.427Z,49.28
2023-11-30T14:55:17.617Z,53.40
2023-11-30T14:57:45.866Z,53.95
2023-11-30T15:00:18.303Z,52.22
2023-11-30T15:05:16.720Z,54.33
2023-11-30T15:07:45.149Z,53.25
2023-11-30T15:10:14.189Z,56.50
2023-11-30T15:12:42.732Z,55.25
2023-11-30T15:15:15.382Z,55.58
2023-11-30T15:17:45.385Z,54.15
2023-11-30T15:20:16.044Z,53.55
2023-11-30T15:22:45.148Z,52.35
2023-11-30T15:25:19.937Z,48.35
2023-11-30T15:27:49.799Z,50.45
2023-11-30T15:30:18.700Z,54.97
2023-11-30T15:32:47.016Z,54.75
2023-11-30T15:35:16.916Z,50.08
2023-11-30T15:37:50.124Z,50.97
2023-11-30T15:40:22.410Z,41.70
2023-11-30T15:42:52.729Z,39.88
2023-11-30T15:45:23.071Z,42.72
2023-11-30T15:47:51.842Z,41.10
2023-11-30T15:50:21.864Z,37.90
2023-11-30T15:52:49.949Z,41.20
2023-11-30T15:55:20.662Z,41.45
2023-11-30T15:57:48.930Z,39.85
2023-11-30T16:00:21.478Z,40.67
2023-11-30T16:02:50.244Z,43.45
2023-11-30T16:05:18.763Z,40.67
2023-11-30T16:07:48.173Z,45.95
2023-11-30T16:10:16.456Z,40.40
2023-11-30T16:12:48.774Z,41.60
2023-11-30T16:15:16.926Z,41.30
2023-11-30T16:17:47.052Z,41.85
2023-11-30T16:20:15.623Z,40.60
2023-11-30T16:22:43.724Z,37.05
2023-11-30T16:25:13.753Z,39.38
2023-11-30T16:27:43.450Z,33.55
2023-11-30T16:30:12.810Z,34.45
2023-11-30T16:32:41.079Z,33.38
2023-11-30T16:35:10.178Z,32.90
2023-11-30T16:37:38.306Z,33.17
2023-11-30T16:40:08.370Z,34.38
2023-11-30T16:42:38.213Z,37.13
2023-11-30T16:45:09.790Z,34.72
2023-11-30T16:47:39.391Z,33.15
2023-11-30T16:50:09.782Z,32.30
2023-11-30T16:52:38.089Z,34.47
2023-11-30T16:55:06.778Z,32.53
2023-11-30T16:57:34.969Z,38.05
2023-11-30T17:00:05.422Z,31.20
2023-11-30T17:02:33.764Z,34.08
2023-11-30T17:05:02.045Z,32.70
2023-11-30T17:07:30.621Z,31.15
2023-11-30T17:09:59.051Z,36.88
2023-11-30T17:12:27.503Z,34.15
2023-11-30T17:14:55.582Z,28.77
2023-11-30T17:17:25.038Z,30.50
2023-11-30T17:19:53.128Z,31.58
2023-11-30T17:22:21.174Z,31.92
2023-11-30T17:24:49.547Z,29.88
2023-11-30T17:27:17.716Z,30.55
2023-11-30T17:29:45.826Z,31.20
2023-11-30T17:32:13.993Z,28.75
2023-11-30T17:34:44.432Z,31.65
2023-11-30T17:37:14.186Z,32.80
2023-11-30T17:39:44.628Z,41.50
2023-11-30T17:42:12.756Z,30.40
2023-11-30T17:44:40.883Z,34.83
2023-11-30T17:47:09.090Z,31.60
2023-11-30T17:49:37.379Z,32.53
2023-11-30T17:52:07.419Z,33.97
2023-11-30T17:54:35.563Z,31.10
2023-11-30T17:57:06.681Z,33.97
2023-11-30T17:59:34.774Z,37.05
2023-11-30T18:02:05.878Z,34.75
2023-11-30T18:04:34.163Z,37.30
2023-11-30T18:07:02.430Z,36.85
2023-11-30T18:09:32.191Z,32.40
2023-11-30T18:12:02.920Z,36.50
2023-11-30T18:14:33.118Z,35.08
2023-11-30T18:17:01.536Z,37.67
2023-11-30T18:19:29.853Z,33.58
2023-11-30T18:21:58.784Z,37.97
2023-11-30T18:24:31.109Z,35.33
2023-11-30T18:27:02.845Z,34.70
2023-11-30T18:29:31.617Z,34.97
2023-11-30T18:32:00.893Z,33.55
2023-11-30T18:34:29.138Z,30.33
2023-11-30T18:36:57.218Z,31.15
2023-11-30T18:39:25.585Z,35.85
2023-11-30T18:41:56.161Z,43.75
2023-11-30T18:44:26.168Z,39.20
2023-11-30T18:46:54.308Z,38.35
2023-11-30T18:49:22.361Z,35.75
2023-11-30T18:51:50.469Z,34.28
2023-11-30T18:54:21.975Z,35.03
2023-11-30T18:56:50.283Z,36.95
2023-11-30T18:59:18.428Z,39.20
2023-11-30T19:01:48.016Z,37.42
2023-11-30T19:04:16.304Z,42.38
2023-11-30T19:06:46.975Z,41.05
2023-11-30T19:09:17.282Z,43.65
2023-11-30T19:11:46.166Z,40.97
2023-11-30T19:14:14.230Z,39.75
2023-11-30T19:16:42.282Z,38.35
2023-11-30T19:19:11.919Z,37.97
2023-11-30T19:21:42.677Z,45.80
2023-11-30T19:24:12.283Z,42.72
2023-11-30T19:26:42.408Z,41.03
2023-11-30T19:29:12.226Z,45.67
2023-11-30T19:31:40.521Z,41.70
2023-11-30T19:34:10.644Z,42.78
2023-11-30T19:36:43.112Z,42.40
2023-11-30T19:39:11.304Z,43.92
2023-11-30T19:41:43.840Z,45.55
2023-11-30T19:44:12.734Z,42.30
2023-11-30T19:46:40.813Z,39.95
2023-11-30T19:49:09.087Z,42.05
2023-11-30T19:51:37.331Z,40.05
2023-11-30T19:54:07.119Z,37.72
2023-11-30T19:56:36.994Z,38.17
2023-11-30T19:59:05.220Z,43.03
2023-11-30T20:01:33.748Z,39.60
2023-11-30T20:04:02.170Z,39.28
2023-11-30T20:06:30.272Z,45.30
2023-11-30T20:08:58.285Z,39.35
2023-11-30T20:11:27.694Z,42.90
2023-11-30T20:13:55.666Z,40.08
2023-11-30T20:16:23.666Z,41.92
2023-11-30T20:18:51.717Z,42.97
2023-11-30T20:21:22.148Z,39.50
2023-11-30T20:23:50.656Z,43.40
2023-11-30T20:26:19.264Z,39.40
2023-11-30T20:28:48.864Z,42.70
2023-11-30T20:31:17.485Z,40.67
2023-11-30T20:33:46.956Z,41.38
2023-11-30T20:36:15.773Z,44.58
2023-11-30T20:38:44.640Z,41.78
2023-11-30T20:41:13.060Z,41.08
2023-11-30T20:43:41.221Z,44.08
2023-11-30T20:46:10.881Z,41.10
2023-11-30T20:48:41.894Z,44.50
2023-11-30T20:51:10.187Z,40.17
2023-11-30T20:53:38.153Z,41.17
2023-11-30T20:56:07.663Z,39.22
2023-11-30T20:58:36.080Z,35.65
2023-11-30T21:01:04.378Z,38.13
2023-11-30T21:03:33.965Z,38.40
2023-11-30T21:06:02.351Z,41.35
2023-11-30T21:08:33.606Z,36.78
2023-11-30T21:11:01.938Z,35.35
2023-11-30T21:13:33.386Z,36.45
2023-11-30T21:16:01.524Z,42.50
2023-11-30T21:18:29.896Z,38.95
2023-11-30T21:20:59.529Z,36.00
2023-11-30T21:23:27.574Z,34.03
2023-11-30T21:25:55.764Z,37.22
2023-11-30T21:28:23.853Z,34.10
2023-11-30T21:30:52.123Z,34.95
2023-11-30T21:33:20.824Z,35.78
2023-11-30T21:35:48.971Z,33.40
2023-11-30T21:38:18.383Z,35.28
2023-11-30T21:40:47.769Z,32.25
2023-11-30T21:43:15.840Z,38.25
2023-11-30T21:45:43.976Z,38.22
2023-11-30T21:48:12.314Z,36.85
2023-11-30T21:50:40.400Z,36.80
2023-11-30T21:53:08.759Z,39.10
2023-11-30T21:55:38.248Z,40.03
2023-11-30T21:58:06.816Z,38.83
2023-11-30T22:00:35.080Z,35.08
2023-11-30T22:03:03.461Z,37.72
2023-11-30T22:05:36.376Z,39.75
2023-11-30T22:08:05.811Z,38.72
2023-11-30T22:10:33.928Z,40.05
2023-11-30T22:13:03.787Z,39.85
2023-11-30T22:15:31.965Z,46.05
2023-11-30T22:18:01.201Z,49.42
2023-11-30T22:20:29.310Z,41.97
2023-11-30T22:22:57.523Z,51.65
2023-11-30T22:25:25.599Z,51.55
2023-11-30T22:27:53.788Z,50.22
2023-11-30T22:30:23.277Z,48.75
2023-11-30T22:32:52.952Z,49.03
2023-11-30T22:35:21.157Z,48.58
2023-11-30T22:37:49.542Z,51.83
2023-11-30T22:40:17.834Z,51.42
2023-11-30T22:42:46.007Z,52.13
2023-11-30T22:45:14.400Z,52.28
2023-11-30T22:47:43.996Z,54.35
2023-11-30T22:50:12.315Z,53.20
2023-11-30T22:52:40.485Z,55.38
2023-11-30T22:55:09.784Z,59.78
2023-11-30T22:57:40.630Z,54.45
2023-11-30T23:00:17.581Z,55.47
2023-11-30T23:02:47.282Z,52.85
2023-11-30T23:05:16.679Z,56.00
2023-11-30T23:07:48.405Z,56.20
2023-11-30T23:10:18.597Z,53.85
2023-11-30T23:12:47.066Z,54.40
2023-11-30T23:15:15.246Z,53.75
2023-11-30T23:17:43.450Z,56.35
2023-11-30T23:20:13.503Z,58.20
2023-11-30T23:22:42.525Z,56.25
2023-11-30T23:25:11.438Z,58.47
2023-11-30T23:27:39.889Z,69.15
2023-11-30T23:30:11.392Z,61.80
2023-11-30T23:32:44.284Z,64.05
2023-11-30T23:35:13.904Z,65.13
2023-11-30T23:37:44.865Z,62.33
2023-11-30T23:40:14.253Z,56.85
2023-11-30T23:42:42.478Z,63.88
2023-11-30T23:45:11.511Z,58.70
2023-11-30T23:47:39.950Z,61.00
2023-11-30T23:50:09.252Z,62.08
2023-11-30T23:52:38.675Z,59.90
2023-11-30T23:55:07.673Z,67.65
2023-11-30T23:57:36.748Z,67.47
